createdAt,value
2023-05-05T00:00:38.766Z,14.22
2023-05-05T00:03:09.382Z,14.20
2023-05-05T00:05:39.846Z,14.18
2023-05-05T00:08:10.470Z,14.18
2023-05-05T00:10:41.612Z,14.16
2023-05-05T00:13:10.698Z,14.15
2023-05-05T00:15:42.771Z,14.13
2023-05-05T00:18:14.466Z,14.10
2023-05-05T00:20:44.863Z,14.08
2023-05-05T00:23:15.908Z,14.07
2023-05-05T00:25:55.114Z,14.05
2023-05-05T00:28:25.541Z,14.02
2023-05-05T00:31:17.808Z,13.97
2023-05-05T00:33:48.528Z,13.94
2023-05-05T00:36:21.565Z,13.89
2023-05-05T00:38:52.126Z,13.88
2023-05-05T00:41:22.506Z,13.85
2023-05-05T00:43:55.785Z,13.82
2023-05-05T00:46:27.921Z,13.80
2023-05-05T00:48:59.809Z,13.77
2023-05-05T00:51:32.047Z,13.74
2023-05-05T00:54:03.176Z,13.71
2023-05-05T00:56:34.330Z,13.66
2023-05-05T00:59:07.734Z,13.62
2023-05-05T01:01:38.309Z,13.56
2023-05-05T01:04:09.329Z,13.51
2023-05-05T01:06:49.593Z,13.45
2023-05-05T01:09:32.637Z,13.37
2023-05-05T01:12:16.807Z,13.30
2023-05-05T01:14:54.502Z,13.26
2023-05-05T01:17:34.716Z,13.23
2023-05-05T01:20:18.028Z,13.22
2023-05-05T01:22:54.895Z,13.24
2023-05-05T01:25:47.202Z,13.29
2023-05-05T01:28:39.296Z,13.38
2023-05-05T01:31:37.098Z,13.43
2023-05-05T01:34:11.147Z,13.46
2023-05-05T01:36:57.937Z,13.47
2023-05-05T01:39:32.574Z,13.48
2023-05-05T01:42:09.294Z,13.47
2023-05-05T01:44:42.861Z,13.46
2023-05-05T01:47:16.140Z,13.44
2023-05-05T01:49:58.408Z,13.38
2023-05-05T01:52:32.680Z,13.35
2023-05-05T01:55:05.572Z,13.31
2023-05-05T01:57:40.705Z,13.26
2023-05-05T02:00:13.793Z,13.22
2023-05-05T02:02:51.693Z,13.15
2023-05-05T02:05:26.598Z,13.07
2023-05-05T02:08:00.581Z,12.98
2023-05-05T02:10:31.930Z,12.89
2023-05-05T02:13:15.526Z,12.79
2023-05-05T02:16:09.144Z,12.68
2023-05-05T02:18:43.577Z,12.59
2023-05-05T02:21:17.715Z,12.51
2023-05-05T02:23:51.740Z,12.43
2023-05-05T02:26:29.188Z,12.36
2023-05-05T02:29:07.374Z,12.32
2023-05-05T02:31:47.666Z,12.30
2023-05-05T02:34:26.857Z,12.27
2023-05-05T02:37:04.330Z,12.24
2023-05-05T02:39:43.706Z,12.23
2023-05-05T02:42:21.190Z,12.20
2023-05-05T02:44:58.074Z,12.19
2023-05-05T02:47:37.266Z,12.17
2023-05-05T02:50:12.465Z,12.17
2023-05-05T02:52:57.234Z,12.17
2023-05-05T02:55:27.074Z,12.18
2023-05-05T02:58:06.744Z,12.20
2023-05-05T03:00:48.516Z,12.22
2023-05-05T03:03:31.789Z,12.26
2023-05-05T03:06:17.163Z,12.32
2023-05-05T03:09:13.165Z,12.38
2023-05-05T03:11:51.903Z,12.44
2023-05-05T03:14:28.233Z,12.48
2023-05-05T03:17:21.877Z,12.53
2023-05-05T03:19:53.274Z,12.55
2023-05-05T03:22:28.235Z,12.56
2023-05-05T03:25:00.821Z,12.55
2023-05-05T03:27:32.333Z,12.52
2023-05-05T03:30:05.939Z,12.48
2023-05-05T03:32:48.591Z,12.43
2023-05-05T03:35:30.546Z,12.38
2023-05-05T03:38:01.586Z,12.32
2023-05-05T03:40:43.466Z,12.27
2023-05-05T03:43:23.307Z,12.22
2023-05-05T03:46:07.111Z,12.18
2023-05-05T03:48:41.737Z,12.14
2023-05-05T03:51:13.272Z,12.10
2023-05-05T03:53:54.116Z,12.05
2023-05-05T03:56:25.849Z,12.01
2023-05-05T03:58:56.536Z,11.97
2023-05-05T04:01:26.544Z,11.96
2023-05-05T04:04:00.816Z,11.96
2023-05-05T04:06:36.698Z,11.98
2023-05-05T04:09:07.382Z,11.97
2023-05-05T04:11:39.427Z,11.98
2023-05-05T04:14:10.816Z,11.97
2023-05-05T04:16:43.559Z,11.96
2023-05-05T04:19:25.285Z,11.97
2023-05-05T04:22:05.859Z,11.97
2023-05-05T04:24:37.238Z,11.95
2023-05-05T04:27:07.133Z,11.93
2023-05-05T04:29:48.830Z,11.92
2023-05-05T04:32:22.391Z,11.90
2023-05-05T04:35:02.101Z,11.89
2023-05-05T04:37:33.084Z,11.89
2023-05-05T04:40:03.975Z,11.90
2023-05-05T04:42:54.643Z,11.90
2023-05-05T04:45:25.446Z,11.90
2023-05-05T04:48:16.039Z,11.92
2023-05-05T04:50:49.237Z,11.96
2023-05-05T04:53:39.816Z,12.00
2023-05-05T04:56:09.818Z,12.03
2023-05-05T04:58:40.399Z,12.05
2023-05-05T05:01:23.776Z,12.06
2023-05-05T05:03:54.548Z,12.08
2023-05-05T05:06:25.142Z,12.09
2023-05-05T05:09:06.091Z,12.12
2023-05-05T05:11:39.597Z,12.15
2023-05-05T05:14:12.646Z,12.18
2023-05-05T05:16:43.373Z,12.22
2023-05-05T05:19:34.158Z,12.27
2023-05-05T05:22:07.307Z,12.34
2023-05-05T05:24:39.924Z,12.43
2023-05-05T05:27:11.532Z,12.56
2023-05-05T05:29:47.466Z,12.71
2023-05-05T05:32:18.799Z,12.88
2023-05-05T05:34:52.116Z,13.03
2023-05-05T05:37:22.819Z,13.17
2023-05-05T05:40:14.567Z,13.30
2023-05-05T05:42:55.195Z,13.44
2023-05-05T05:45:27.535Z,13.55
2023-05-05T05:47:58.283Z,13.65
2023-05-05T05:50:29.299Z,13.76
2023-05-05T05:53:00.148Z,13.86
2023-05-05T05:55:31.287Z,13.98
2023-05-05T05:58:02.091Z,14.11
2023-05-05T06:00:32.646Z,14.24
2023-05-05T06:03:06.242Z,14.38
2023-05-05T06:05:39.193Z,14.50
2023-05-05T06:08:12.801Z,14.63
2023-05-05T06:10:48.271Z,14.76
2023-05-05T06:13:20.557Z,14.88
2023-05-05T06:15:53.343Z,15.01
2023-05-05T06:18:24.006Z,15.14
2023-05-05T06:20:55.313Z,15.32
2023-05-05T06:23:29.136Z,15.70
2023-05-05T06:26:05.139Z,15.99
2023-05-05T06:28:35.512Z,16.59
2023-05-05T06:31:06.326Z,17.18
2023-05-05T06:33:36.999Z,17.59
2023-05-05T06:36:08.220Z,17.83
2023-05-05T06:38:38.634Z,17.92
2023-05-05T06:41:09.124Z,17.97
2023-05-05T06:43:39.575Z,18.02
2023-05-05T06:46:12.552Z,18.08
2023-05-05T06:48:43.020Z,18.13
2023-05-05T06:51:13.458Z,18.17
2023-05-05T06:53:43.903Z,18.22
2023-05-05T06:56:14.276Z,18.27
2023-05-05T06:58:44.777Z,18.30
2023-05-05T07:01:15.299Z,18.32
2023-05-05T07:03:45.876Z,18.38
2023-05-05T07:06:16.477Z,18.47
2023-05-05T07:08:47.322Z,18.55
2023-05-05T07:11:17.743Z,18.60
2023-05-05T07:13:49.312Z,18.59
2023-05-05T07:16:19.729Z,18.56
2023-05-05T07:18:50.195Z,18.54
2023-05-05T07:21:20.516Z,18.55
2023-05-05T07:23:50.841Z,18.49
2023-05-05T07:26:21.386Z,18.49
2023-05-05T07:28:52.135Z,18.52
2023-05-05T07:31:23.294Z,18.55
2023-05-05T07:33:52.415Z,18.64
2023-05-05T07:36:23.098Z,18.71
2023-05-05T07:38:53.626Z,18.80
2023-05-05T07:41:24.023Z,18.87
2023-05-05T07:43:54.626Z,18.92
2023-05-05T07:46:25.152Z,18.97
2023-05-05T07:48:55.568Z,19.02
2023-05-05T07:51:26.518Z,19.13
2023-05-05T07:53:57.707Z,19.19
2023-05-05T07:56:28.240Z,19.24
2023-05-05T07:58:58.741Z,19.35
2023-05-05T08:01:29.103Z,19.44
2023-05-05T08:03:59.776Z,19.49
2023-05-05T08:06:31.690Z,19.59
2023-05-05T08:09:03.418Z,19.64
2023-05-05T08:11:34.015Z,19.69
2023-05-05T08:14:04.512Z,19.75
2023-05-05T08:16:34.984Z,19.79
2023-05-05T08:19:14.610Z,19.79
2023-05-05T08:21:51.796Z,19.81
2023-05-05T08:24:22.168Z,19.87
2023-05-05T08:26:52.535Z,19.89
2023-05-05T08:29:22.952Z,19.92
2023-05-05T08:31:53.378Z,19.98
2023-05-05T08:34:23.902Z,20.06
2023-05-05T08:36:54.355Z,20.15
2023-05-05T08:39:24.897Z,20.22
2023-05-05T08:41:55.268Z,20.29
2023-05-05T08:44:26.829Z,20.33
2023-05-05T08:46:59.251Z,20.38
2023-05-05T08:49:41.033Z,20.45
2023-05-05T08:52:14.805Z,20.51
2023-05-05T08:54:52.423Z,20.55
2023-05-05T08:57:31.024Z,20.62
2023-05-05T09:00:03.204Z,20.70
2023-05-05T09:02:34.168Z,20.77
2023-05-05T09:05:05.216Z,20.85
2023-05-05T09:07:37.390Z,20.91
2023-05-05T09:10:11.515Z,20.92
2023-05-05T09:12:42.650Z,20.94
2023-05-05T09:15:16.389Z,20.99
2023-05-05T09:17:46.772Z,21.04
2023-05-05T09:20:17.462Z,21.13
2023-05-05T09:22:48.883Z,21.29
2023-05-05T09:25:20.190Z,21.41
2023-05-05T09:27:51.948Z,21.51
2023-05-05T09:30:27.563Z,21.58
2023-05-05T09:32:58.447Z,21.68
2023-05-05T09:35:29.549Z,21.82
2023-05-05T09:37:59.277Z,21.88
2023-05-05T09:40:45.256Z,21.97
2023-05-05T09:43:16.267Z,22.09
2023-05-05T09:45:45.457Z,22.14
2023-05-05T09:48:29.537Z,22.22
2023-05-05T09:51:00.809Z,22.36
2023-05-05T09:53:38.818Z,22.39
2023-05-05T09:56:11.013Z,22.46
2023-05-05T09:58:41.758Z,22.56
2023-05-05T10:01:24.473Z,22.72
2023-05-05T10:03:54.870Z,22.91
2023-05-05T10:06:42.683Z,23.13
2023-05-05T10:09:13.187Z,23.40
2023-05-05T10:11:46.131Z,23.67
2023-05-05T10:14:17.983Z,23.93
2023-05-05T10:16:50.928Z,24.28
2023-05-05T10:19:22.885Z,24.68
2023-05-05T10:21:54.512Z,24.92
2023-05-05T10:24:31.658Z,25.20
2023-05-05T10:27:08.053Z,25.43
2023-05-05T10:29:46.832Z,25.69
2023-05-05T10:32:46.561Z,25.90
2023-05-05T10:35:22.190Z,26.14
2023-05-05T10:37:53.433Z,26.35
2023-05-05T10:40:24.591Z,26.57
2023-05-05T10:42:56.951Z,26.64
2023-05-05T10:45:27.826Z,26.74
2023-05-05T10:48:05.281Z,26.84
2023-05-05T10:50:40.384Z,26.98
2023-05-05T10:53:18.208Z,27.19
2023-05-05T10:55:54.280Z,27.34
2023-05-05T10:58:51.246Z,27.10
2023-05-05T11:01:34.670Z,27.01
2023-05-05T11:04:22.691Z,27.02
2023-05-05T11:07:26.025Z,27.00
2023-05-05T11:10:03.663Z,26.72
2023-05-05T11:12:55.123Z,26.16
2023-05-05T11:15:38.794Z,25.74
2023-05-05T11:18:28.734Z,25.45
2023-05-05T11:21:19.379Z,25.24
2023-05-05T11:23:53.719Z,25.12
2023-05-05T11:26:52.932Z,25.11
2023-05-05T11:29:23.389Z,25.22
2023-05-05T11:32:13.801Z,25.32
2023-05-05T11:34:52.442Z,25.37
2023-05-05T11:37:25.616Z,25.49
2023-05-05T11:40:08.667Z,25.79
2023-05-05T11:42:39.559Z,26.14
2023-05-05T11:45:21.709Z,26.23
2023-05-05T11:47:52.095Z,26.28
2023-05-05T11:50:24.701Z,26.24
2023-05-05T11:52:55.258Z,26.15
2023-05-05T11:55:25.957Z,26.03
2023-05-05T11:57:56.392Z,25.90
2023-05-05T12:00:36.646Z,25.76
2023-05-05T12:03:08.769Z,25.89
2023-05-05T12:05:39.382Z,26.26
2023-05-05T12:08:10.524Z,26.55
2023-05-05T12:10:41.063Z,26.45
2023-05-05T12:13:21.462Z,26.25
2023-05-05T12:15:52.202Z,26.15
2023-05-05T12:18:23.203Z,26.22
2023-05-05T12:20:53.840Z,26.51
2023-05-05T12:23:23.077Z,26.93
2023-05-05T12:25:53.613Z,27.45
2023-05-05T12:28:22.919Z,27.96
2023-05-05T12:30:59.859Z,28.05
2023-05-05T12:33:30.411Z,28.18
2023-05-05T12:35:59.446Z,28.25
2023-05-05T12:38:30.030Z,27.86
2023-05-05T12:40:59.222Z,27.39
2023-05-05T12:43:31.747Z,26.96
2023-05-05T12:46:10.161Z,26.66
2023-05-05T12:48:46.411Z,26.42
2023-05-05T12:51:20.997Z,26.23
2023-05-05T12:54:02.967Z,26.03
2023-05-05T12:56:41.527Z,25.93
2023-05-05T12:59:13.355Z,25.90
2023-05-05T13:01:53.359Z,26.05
2023-05-05T13:04:25.710Z,26.34
2023-05-05T13:07:13.015Z,26.64
2023-05-05T13:09:43.686Z,26.97
2023-05-05T13:12:12.582Z,27.22
2023-05-05T13:14:43.859Z,27.44
2023-05-05T13:17:15.318Z,27.62
2023-05-05T13:19:47.087Z,27.75
2023-05-05T13:22:17.917Z,27.69
2023-05-05T13:24:52.261Z,27.51
2023-05-05T13:27:23.761Z,27.39
2023-05-05T13:29:54.454Z,27.26
2023-05-05T13:32:23.737Z,27.15
2023-05-05T13:34:54.362Z,27.00
2023-05-05T13:37:23.416Z,26.95
2023-05-05T13:39:57.167Z,26.84
2023-05-05T13:42:27.744Z,26.90
2023-05-05T13:45:01.393Z,26.83
2023-05-05T13:47:31.809Z,26.67
2023-05-05T13:50:02.407Z,26.51
2023-05-05T13:52:33.181Z,26.33
2023-05-05T13:55:04.505Z,25.98
2023-05-05T13:57:35.396Z,25.68
2023-05-05T14:00:07.754Z,25.38
2023-05-05T14:02:38.161Z,25.10
2023-05-05T14:05:10.969Z,24.89
2023-05-05T14:07:42.401Z,24.75
2023-05-05T14:10:13.693Z,24.65
2023-05-05T14:12:44.449Z,24.61
2023-05-05T14:15:13.703Z,24.52
2023-05-05T14:17:44.259Z,24.44
2023-05-05T14:20:16.082Z,24.42
2023-05-05T14:22:48.733Z,24.45
2023-05-05T14:25:20.046Z,24.48
2023-05-05T14:27:51.034Z,24.56
2023-05-05T14:30:21.586Z,24.82
2023-05-05T14:32:52.287Z,25.02
2023-05-05T14:35:21.317Z,25.21
2023-05-05T14:37:51.780Z,25.32
2023-05-05T14:40:22.466Z,25.31
2023-05-05T14:42:53.172Z,25.24
2023-05-05T14:45:23.754Z,25.12
2023-05-05T14:47:54.529Z,25.02
2023-05-05T14:50:23.567Z,24.91
2023-05-05T14:52:53.991Z,24.74
2023-05-05T14:55:25.214Z,24.57
2023-05-05T14:57:55.847Z,24.32
2023-05-05T15:00:26.904Z,24.11
2023-05-05T15:02:57.888Z,23.92
2023-05-05T15:05:28.548Z,23.74
2023-05-05T15:07:59.060Z,23.61
2023-05-05T15:10:30.039Z,23.47
2023-05-05T15:12:59.239Z,23.35
2023-05-05T15:15:29.903Z,23.22
2023-05-05T15:18:00.709Z,23.08
2023-05-05T15:20:31.760Z,22.95
2023-05-05T15:23:01.433Z,22.80
2023-05-05T15:25:32.217Z,22.65
2023-05-05T15:28:02.925Z,22.52
2023-05-05T15:30:33.608Z,22.40
2023-05-05T15:33:04.645Z,22.26
2023-05-05T15:35:36.330Z,22.10
2023-05-05T15:38:06.803Z,21.91
2023-05-05T15:40:37.720Z,21.42
2023-05-05T15:43:08.659Z,20.73
2023-05-05T15:45:41.106Z,20.10
2023-05-05T15:48:11.537Z,19.57
2023-05-05T15:50:42.117Z,19.13
2023-05-05T15:53:12.506Z,18.78
2023-05-05T15:55:43.118Z,18.54
2023-05-05T15:58:13.728Z,18.42
2023-05-05T16:00:44.165Z,18.32
2023-05-05T16:03:14.781Z,18.21
2023-05-05T16:05:45.540Z,18.10
2023-05-05T16:08:15.977Z,18.02
2023-05-05T16:10:46.398Z,17.97
2023-05-05T16:13:17.032Z,17.95
2023-05-05T16:15:47.570Z,17.94
2023-05-05T16:18:17.956Z,17.91
2023-05-05T16:20:48.415Z,17.91
2023-05-05T16:23:18.788Z,17.92
2023-05-05T16:25:49.107Z,17.90
2023-05-05T16:28:19.744Z,17.89
2023-05-05T16:30:50.327Z,17.87
2023-05-05T16:33:20.697Z,17.81
2023-05-05T16:35:51.158Z,17.73
2023-05-05T16:38:21.614Z,17.65
2023-05-05T16:40:52.280Z,17.56
2023-05-05T16:43:22.746Z,17.47
2023-05-05T16:45:53.295Z,17.37
2023-05-05T16:48:23.691Z,17.28
2023-05-05T16:50:56.384Z,17.21
2023-05-05T16:53:26.978Z,17.13
2023-05-05T16:55:57.541Z,17.08
2023-05-05T16:58:28.221Z,17.03
2023-05-05T17:01:02.775Z,17.01
2023-05-05T17:03:33.302Z,16.99
2023-05-05T17:06:03.776Z,16.97
2023-05-05T17:08:34.460Z,16.95
2023-05-05T17:11:04.906Z,16.93
2023-05-05T17:13:35.728Z,16.92
2023-05-05T17:16:06.530Z,16.91
2023-05-05T17:18:37.155Z,16.90
2023-05-05T17:21:08.292Z,16.90
2023-05-05T17:23:38.817Z,16.89
2023-05-05T17:26:09.277Z,16.86
2023-05-05T17:28:39.631Z,16.84
2023-05-05T17:31:10.272Z,16.83
2023-05-05T17:33:40.892Z,16.83
2023-05-05T17:36:12.088Z,16.83
2023-05-05T17:38:42.451Z,16.83
2023-05-05T17:41:12.887Z,16.81
2023-05-05T17:43:43.372Z,16.78
2023-05-05T17:46:14.043Z,16.76
2023-05-05T17:48:47.318Z,16.72
2023-05-05T17:51:17.734Z,16.67
2023-05-05T17:53:48.190Z,16.63
2023-05-05T17:56:18.820Z,16.59
2023-05-05T17:58:49.371Z,16.54
2023-05-05T18:01:27.243Z,16.50
2023-05-05T18:03:57.890Z,16.46
2023-05-05T18:06:33.971Z,16.44
2023-05-05T18:09:04.640Z,16.40
2023-05-05T18:11:35.369Z,16.38
2023-05-05T18:14:05.708Z,16.35
2023-05-05T18:16:38.559Z,16.32
2023-05-05T18:19:09.146Z,16.28
2023-05-05T18:21:39.524Z,16.24
2023-05-05T18:24:19.390Z,16.21
2023-05-05T18:26:52.556Z,16.16
2023-05-05T18:29:24.157Z,16.14
2023-05-05T18:31:54.913Z,16.12
2023-05-05T18:34:26.219Z,16.10
2023-05-05T18:36:57.063Z,16.08
2023-05-05T18:39:28.174Z,16.07
2023-05-05T18:41:58.709Z,16.05
2023-05-05T18:44:29.480Z,16.03
2023-05-05T18:47:00.225Z,16.01
2023-05-05T18:49:31.679Z,15.99
2023-05-05T18:52:02.190Z,15.96
2023-05-05T18:54:32.638Z,15.93
2023-05-05T18:57:03.657Z,15.88
2023-05-05T18:59:36.639Z,15.83
2023-05-05T19:02:07.964Z,15.79
2023-05-05T19:04:38.188Z,15.75
2023-05-05T19:07:09.180Z,15.71
2023-05-05T19:09:39.742Z,15.67
2023-05-05T19:12:10.349Z,15.63
2023-05-05T19:14:41.098Z,15.60
2023-05-05T19:17:11.649Z,15.57
2023-05-05T19:19:42.089Z,15.54
2023-05-05T19:22:14.928Z,15.51
2023-05-05T19:24:45.515Z,15.47
2023-05-05T19:27:17.081Z,15.45
2023-05-05T19:29:52.003Z,15.43
2023-05-05T19:32:23.074Z,15.41
2023-05-05T19:35:03.781Z,15.38
2023-05-05T19:37:34.135Z,15.36
2023-05-05T19:40:05.395Z,15.33
2023-05-05T19:42:34.310Z,15.31
2023-05-05T19:45:05.283Z,15.30
2023-05-05T19:47:36.340Z,15.29
2023-05-05T19:50:15.978Z,15.29
2023-05-05T19:52:46.528Z,15.30
2023-05-05T19:55:16.934Z,15.30
2023-05-05T19:57:47.426Z,15.30
2023-05-05T20:00:19.531Z,15.30
2023-05-05T20:02:50.221Z,15.29
2023-05-05T20:05:20.825Z,15.29
2023-05-05T20:07:52.831Z,15.30
2023-05-05T20:10:27.122Z,15.30
2023-05-05T20:12:57.657Z,15.32
2023-05-05T20:15:28.385Z,15.33
2023-05-05T20:17:58.796Z,15.35
2023-05-05T20:20:29.247Z,15.36
2023-05-05T20:22:59.757Z,15.38
2023-05-05T20:25:30.627Z,15.39
2023-05-05T20:28:01.201Z,15.39
2023-05-05T20:30:31.667Z,15.39
2023-05-05T20:33:02.081Z,15.39
2023-05-05T20:35:32.726Z,15.39
2023-05-05T20:38:03.647Z,15.38
2023-05-05T20:40:34.240Z,15.37
2023-05-05T20:43:04.846Z,15.37
2023-05-05T20:45:37.907Z,15.36
2023-05-05T20:48:11.145Z,15.35
2023-05-05T20:50:42.474Z,15.33
2023-05-05T20:53:13.880Z,15.31
2023-05-05T20:55:44.268Z,15.27
2023-05-05T20:58:14.957Z,15.23
2023-05-05T21:00:45.644Z,15.18
2023-05-05T21:03:16.296Z,15.13
2023-05-05T21:05:46.715Z,15.09
2023-05-05T21:08:17.259Z,15.04
2023-05-05T21:10:47.871Z,15.00
2023-05-05T21:13:18.461Z,14.95
2023-05-05T21:15:52.055Z,14.90
2023-05-05T21:18:22.488Z,14.85
2023-05-05T21:20:52.977Z,14.80
2023-05-05T21:23:23.402Z,14.75
2023-05-05T21:25:54.110Z,14.72
2023-05-05T21:28:24.699Z,14.66
2023-05-05T21:31:19.894Z,14.63
2023-05-05T21:33:46.342Z,14.58
2023-05-05T21:36:17.750Z,14.54
2023-05-05T21:38:48.165Z,14.51
2023-05-05T21:41:18.726Z,14.47
2023-05-05T21:43:49.280Z,14.45
2023-05-05T21:46:20.489Z,14.41
2023-05-05T21:48:51.024Z,14.38
2023-05-05T21:51:22.528Z,14.36
2023-05-05T21:53:52.959Z,14.33
2023-05-05T21:56:23.545Z,14.31
2023-05-05T21:58:54.028Z,14.30
2023-05-05T22:01:24.414Z,14.29
2023-05-05T22:03:55.278Z,14.27
2023-05-05T22:06:25.952Z,14.23
2023-05-05T22:08:57.474Z,14.19
2023-05-05T22:11:28.217Z,14.15
2023-05-05T22:14:01.819Z,14.09
2023-05-05T22:16:34.824Z,14.04
2023-05-05T22:19:05.415Z,13.99
2023-05-05T22:21:35.844Z,13.93
2023-05-05T22:24:08.059Z,13.88
2023-05-05T22:26:42.918Z,13.80
2023-05-05T22:29:13.592Z,13.73
2023-05-05T22:31:44.405Z,13.64
2023-05-05T22:34:18.829Z,13.56
2023-05-05T22:36:49.506Z,13.51
2023-05-05T22:39:23.834Z,13.47
2023-05-05T22:41:54.238Z,13.46
2023-05-05T22:44:27.351Z,13.44
2023-05-05T22:46:57.929Z,13.41
2023-05-05T22:49:28.745Z,13.40
2023-05-05T22:51:59.337Z,13.38
2023-05-05T22:54:29.876Z,13.35
2023-05-05T22:57:00.523Z,13.31
2023-05-05T22:59:31.139Z,13.25
2023-05-05T23:02:04.722Z,13.19
2023-05-05T23:04:35.313Z,13.14
2023-05-05T23:07:05.898Z,13.06
2023-05-05T23:09:36.323Z,12.99
2023-05-05T23:12:07.001Z,12.92
2023-05-05T23:14:37.519Z,12.84
2023-05-05T23:17:08.352Z,12.77
2023-05-05T23:19:38.969Z,12.70
2023-05-05T23:22:23.213Z,12.62
2023-05-05T23:24:55.963Z,12.62
2023-05-05T23:27:26.511Z,12.61
2023-05-05T23:29:57.120Z,12.60
2023-05-05T23:32:28.240Z,12.56
2023-05-05T23:34:58.936Z,12.52
2023-05-05T23:37:32.544Z,12.49
2023-05-05T23:40:02.999Z,12.45
2023-05-05T23:42:33.462Z,12.40
2023-05-05T23:45:04.208Z,12.36
2023-05-05T23:47:34.685Z,12.32
2023-05-05T23:50:05.405Z,12.27
2023-05-05T23:52:38.141Z,12.24
2023-05-05T23:55:10.558Z,12.22
2023-05-05T23:57:41.260Z,12.19
